createdAt,value
2023-01-06T00:04:35.176Z,10.45
2023-01-06T00:09:39.460Z,10.49
2023-01-06T00:14:45.057Z,10.51
2023-01-06T00:19:47.960Z,10.56
2023-01-06T00:24:52.169Z,10.67
2023-01-06T00:29:55.228Z,10.70
2023-01-06T00:34:58.148Z,10.72
2023-01-06T00:40:03.711Z,10.69
2023-01-06T00:45:07.237Z,10.69
2023-01-06T00:50:13.639Z,10.74
2023-01-06T00:55:18.067Z,10.76
2023-01-06T01:00:21.270Z,10.84
2023-01-06T01:05:24.271Z,10.80
2023-01-06T01:10:28.511Z,10.75
2023-01-06T01:15:32.190Z,10.79
2023-01-06T01:20:35.499Z,10.83
2023-01-06T01:25:40.613Z,10.88
2023-01-06T01:30:43.584Z,10.83
2023-01-06T01:35:46.661Z,10.85
2023-01-06T01:40:51.358Z,10.82
2023-01-06T01:45:55.436Z,10.73
2023-01-06T01:50:59.800Z,10.67
2023-01-06T01:56:07.534Z,10.65
2023-01-06T02:01:11.508Z,10.68
2023-01-06T02:06:16.929Z,10.67
2023-01-06T02:11:21.929Z,10.68
2023-01-06T02:16:31.913Z,10.58
2023-01-06T02:21:49.002Z,10.58
2023-01-06T02:27:09.882Z,10.53
2023-01-06T02:32:40.087Z,10.60
2023-01-06T02:37:48.734Z,10.59
2023-01-06T02:43:02.128Z,10.61
2023-01-06T02:48:11.577Z,10.62
2023-01-06T02:53:21.460Z,10.58
2023-01-06T02:58:32.741Z,10.54
2023-01-06T03:03:39.607Z,10.58
2023-01-06T03:08:45.360Z,10.59
2023-01-06T03:13:51.417Z,10.66
2023-01-06T03:18:56.927Z,10.64
2023-01-06T03:24:02.332Z,10.63
2023-01-06T03:29:07.692Z,10.62
2023-01-06T03:34:16.148Z,10.68
2023-01-06T03:39:23.427Z,10.64
2023-01-06T03:44:32.441Z,10.66
2023-01-06T03:49:40.305Z,10.77
2023-01-06T03:54:47.372Z,10.80
2023-01-06T03:59:52.724Z,10.80
2023-01-06T04:05:09.448Z,10.81
2023-01-06T04:10:13.803Z,10.81
2023-01-06T04:15:18.442Z,10.60
2023-01-06T04:20:26.090Z,10.57
2023-01-06T04:25:34.676Z,10.62
2023-01-06T04:30:45.134Z,10.65
2023-01-06T04:35:49.753Z,10.70
2023-01-06T04:40:55.610Z,10.77
2023-01-06T04:45:59.131Z,10.79
2023-01-06T04:51:03.689Z,10.87
2023-01-06T04:56:07.699Z,10.80
2023-01-06T05:01:12.623Z,10.66
2023-01-06T05:06:17.735Z,10.53
2023-01-06T05:11:22.162Z,10.43
2023-01-06T05:16:27.108Z,10.38
2023-01-06T05:21:33.021Z,10.35
2023-01-06T05:26:36.030Z,10.36
2023-01-06T05:31:38.959Z,10.32
2023-01-06T05:36:43.312Z,10.23
2023-01-06T05:41:46.248Z,10.21
2023-01-06T05:46:49.078Z,10.25
2023-01-06T05:51:53.299Z,10.32
2023-01-06T05:56:56.206Z,10.41
2023-01-06T06:01:59.064Z,10.40
2023-01-06T06:07:03.368Z,10.46
2023-01-06T06:12:07.024Z,10.53
2023-01-06T06:17:09.964Z,10.50
2023-01-06T06:22:14.153Z,10.45
2023-01-06T06:27:16.950Z,10.40
2023-01-06T06:32:19.896Z,10.27
2023-01-06T06:37:24.439Z,10.26
2023-01-06T06:42:29.606Z,10.21
2023-01-06T06:47:35.776Z,10.14
2023-01-06T06:52:40.297Z,10.09
2023-01-06T06:57:43.508Z,10.02
2023-01-06T07:02:49.307Z,9.97
2023-01-06T07:07:54.201Z,9.88
2023-01-06T07:12:57.300Z,9.73
2023-01-06T07:18:02.199Z,9.57
2023-01-06T07:23:07.818Z,9.38
2023-01-06T07:28:13.814Z,9.20
2023-01-06T07:33:20.209Z,8.97
2023-01-06T07:38:25.064Z,8.87
2023-01-06T07:43:28.394Z,8.70
2023-01-06T07:48:31.361Z,8.60
2023-01-06T07:53:36.280Z,8.50
2023-01-06T07:58:39.213Z,8.41
2023-01-06T08:03:46.538Z,8.39
2023-01-06T08:08:52.466Z,8.38
2023-01-06T08:13:57.558Z,8.34
2023-01-06T08:19:03.759Z,8.32
2023-01-06T08:24:09.100Z,8.31
2023-01-06T08:29:12.131Z,8.37
2023-01-06T08:34:15.796Z,8.42
2023-01-06T08:39:20.457Z,8.54
2023-01-06T08:44:27.286Z,8.61
2023-01-06T08:49:30.276Z,8.63
2023-01-06T08:54:34.725Z,8.62
2023-01-06T08:59:38.292Z,8.68
2023-01-06T09:04:43.332Z,8.78
2023-01-06T09:09:47.897Z,8.83
2023-01-06T09:14:50.890Z,8.92
2023-01-06T09:25:22.719Z,8.93
2023-01-06T09:30:28.507Z,8.97
2023-01-06T09:35:31.413Z,9.07
2023-01-06T09:40:44.767Z,9.18
2023-01-06T09:45:50.102Z,9.30
2023-01-06T09:50:56.163Z,9.48
2023-01-06T09:56:04.199Z,9.54
2023-01-06T10:01:10.291Z,9.64
2023-01-06T10:06:30.094Z,9.68
2023-01-06T10:11:40.792Z,9.79
2023-01-06T10:17:01.776Z,10.23
2023-01-06T10:22:10.296Z,10.13
2023-01-06T10:27:28.021Z,10.11
2023-01-06T10:32:33.777Z,9.97
2023-01-06T10:37:38.909Z,9.97
2023-01-06T10:42:59.993Z,10.06
2023-01-06T10:48:03.675Z,10.06
2023-01-06T10:53:06.616Z,10.03
2023-01-06T10:58:18.653Z,10.05
2023-01-06T11:03:33.451Z,10.08
2023-01-06T11:08:41.693Z,10.33
2023-01-06T11:13:50.848Z,10.36
2023-01-06T11:18:59.547Z,10.35
2023-01-06T11:24:17.119Z,10.17
2023-01-06T11:29:32.017Z,10.09
2023-01-06T11:34:35.357Z,10.22
2023-01-06T11:39:38.871Z,10.35
2023-01-06T11:44:49.123Z,10.47
2023-01-06T11:49:54.239Z,10.43
2023-01-06T11:55:04.456Z,10.20
2023-01-06T12:00:26.649Z,10.28
2023-01-06T12:05:37.088Z,10.18
2023-01-06T12:10:42.495Z,10.19
2023-01-06T12:15:50.231Z,10.18
2023-01-06T12:20:54.644Z,10.29
2023-01-06T12:26:03.380Z,10.16
2023-01-06T12:31:11.017Z,10.15
2023-01-06T12:36:20.623Z,10.13
2023-01-06T12:41:29.613Z,10.09
2023-01-06T12:47:01.636Z,9.92
2023-01-06T12:52:15.540Z,9.98
2023-01-06T12:57:27.724Z,9.93
2023-01-06T13:02:46.904Z,9.90
2023-01-06T13:08:16.875Z,9.91
2023-01-06T13:13:30.587Z,9.94
2023-01-06T13:18:38.594Z,9.76
2023-01-06T13:23:59.070Z,9.86
2023-01-06T13:29:08.818Z,9.86
2023-01-06T13:34:58.059Z,9.90
2023-01-06T13:40:04.652Z,9.88
2023-01-06T13:45:12.596Z,9.90
2023-01-06T13:50:17.987Z,9.81
2023-01-06T13:55:28.632Z,9.82
2023-01-06T14:00:31.685Z,9.82
2023-01-06T14:05:52.083Z,9.77
2023-01-06T14:11:05.028Z,9.63
2023-01-06T14:16:12.929Z,9.81
2023-01-06T14:21:23.812Z,9.76
2023-01-06T14:26:49.292Z,9.68
2023-01-06T14:32:45.923Z,9.52
2023-01-06T14:37:52.157Z,9.46
2023-01-06T14:43:02.812Z,9.46
2023-01-06T14:48:09.384Z,9.41
2023-01-06T14:53:19.631Z,9.37
2023-01-06T14:58:31.442Z,9.33
2023-01-06T15:03:35.063Z,9.25
2023-01-06T15:08:44.335Z,9.20
2023-01-06T15:13:54.247Z,9.13
2023-01-06T15:18:57.312Z,9.09
2023-01-06T15:24:00.375Z,9.06
2023-01-06T15:29:06.485Z,9.02
2023-01-06T15:34:12.639Z,8.98
2023-01-06T15:39:17.232Z,8.90
2023-01-06T15:44:43.966Z,8.84
2023-01-06T15:49:51.511Z,8.84
2023-01-06T15:54:55.247Z,8.86
2023-01-06T16:00:02.926Z,8.87
2023-01-06T16:05:28.491Z,8.81
2023-01-06T16:10:33.786Z,8.78
2023-01-06T16:15:46.495Z,8.76
2023-01-06T16:20:49.848Z,8.68
2023-01-06T16:26:06.923Z,8.66
2023-01-06T16:31:13.039Z,8.66
2023-01-06T16:36:19.838Z,8.67
2023-01-06T16:41:22.987Z,8.64
2023-01-06T16:46:28.240Z,8.66
2023-01-06T16:51:31.422Z,8.66
2023-01-06T16:56:37.401Z,8.66
2023-01-06T17:01:42.343Z,8.62
2023-01-06T17:06:49.419Z,8.57
2023-01-06T17:11:54.204Z,8.62
2023-01-06T17:16:59.955Z,8.70
2023-01-06T17:22:08.045Z,8.70
2023-01-06T17:27:21.995Z,8.71
2023-01-06T17:32:34.035Z,8.47
2023-01-06T17:37:39.518Z,8.63
2023-01-06T17:42:43.962Z,8.59
2023-01-06T17:47:51.102Z,8.55
2023-01-06T17:53:31.410Z,8.43
2023-01-06T17:58:36.913Z,8.39
2023-01-06T18:03:43.786Z,8.30
2023-01-06T18:08:46.982Z,8.33
2023-01-06T18:13:51.781Z,8.37
2023-01-06T18:18:58.484Z,8.43
2023-01-06T18:24:12.627Z,8.57
2023-01-06T18:29:18.606Z,8.57
2023-01-06T18:34:29.147Z,8.56
2023-01-06T18:39:37.729Z,8.77
2023-01-06T18:44:40.654Z,8.89
2023-01-06T18:49:45.094Z,8.91
2023-01-06T18:54:51.015Z,8.63
2023-01-06T18:59:56.143Z,8.77
2023-01-06T19:05:01.242Z,8.80
2023-01-06T19:10:07.737Z,9.15
2023-01-06T19:15:22.473Z,9.01
2023-01-06T19:20:29.191Z,8.85
2023-01-06T19:25:34.357Z,9.02
2023-01-06T19:30:43.246Z,9.18
2023-01-06T19:35:47.658Z,9.21
2023-01-06T19:40:53.853Z,9.19
2023-01-06T19:45:57.045Z,9.13
2023-01-06T19:51:09.713Z,9.21
2023-01-06T19:56:18.778Z,9.33
2023-01-06T20:01:22.934Z,9.44
2023-01-06T20:06:27.394Z,9.52
2023-01-06T20:11:30.368Z,9.71
2023-01-06T20:16:33.346Z,9.74
2023-01-06T20:27:09.010Z,9.75
2023-01-06T20:32:12.840Z,9.87
2023-01-06T20:37:20.245Z,10.00
2023-01-06T20:42:25.006Z,10.11
2023-01-06T20:47:29.313Z,10.26
2023-01-06T20:52:35.395Z,10.36
2023-01-06T20:57:40.161Z,10.43
2023-01-06T21:02:44.847Z,10.46
2023-01-06T21:07:49.915Z,10.53
2023-01-06T21:12:55.727Z,10.55
2023-01-06T21:17:58.632Z,10.59
2023-01-06T21:23:02.899Z,10.69
2023-01-06T21:28:06.122Z,10.77
2023-01-06T21:33:08.955Z,10.86
2023-01-06T21:38:13.398Z,11.00
2023-01-06T21:43:16.506Z,11.12
2023-01-06T21:48:21.616Z,11.12
2023-01-06T21:53:26.922Z,11.04
2023-01-06T21:58:30.297Z,10.99
2023-01-06T22:03:33.289Z,11.00
2023-01-06T22:08:37.765Z,10.98
2023-01-06T22:13:45.598Z,11.04
2023-01-06T22:18:48.628Z,11.07
2023-01-06T22:23:54.210Z,11.10
2023-01-06T22:28:58.488Z,11.07
2023-01-06T22:34:01.868Z,11.15
2023-01-06T22:39:07.061Z,11.21
2023-01-06T22:44:10.162Z,11.25
2023-01-06T22:49:13.131Z,11.24
2023-01-06T22:54:17.615Z,11.29
2023-01-06T22:59:20.518Z,11.20
2023-01-06T23:04:23.533Z,11.17
2023-01-06T23:09:27.975Z,11.19
2023-01-06T23:14:36.126Z,11.22
2023-01-06T23:19:39.053Z,11.24
2023-01-06T23:24:43.403Z,11.25
2023-01-06T23:29:46.561Z,11.25
2023-01-06T23:34:49.460Z,11.31
2023-01-06T23:39:54.355Z,11.11
2023-01-06T23:44:57.211Z,11.32
2023-01-06T23:50:00.096Z,11.36
2023-01-06T23:55:04.464Z,11.37
